createdAt,value
2019-06-07T00:01:19.306Z,19.80
2019-06-07T00:03:49.758Z,19.27
2019-06-07T00:06:24.553Z,20.10
2019-06-07T00:08:52.285Z,20.67
2019-06-07T00:11:22.746Z,20.83
2019-06-07T00:13:54.792Z,19.93
2019-06-07T00:16:25.292Z,18.97
2019-06-07T00:18:55.831Z,20.87
2019-06-07T00:22:12.873Z,20.50
2019-06-07T00:23:58.411Z,20.63
2019-06-07T00:26:28.809Z,20.73
2019-06-07T00:28:59.320Z,21.30
2019-06-07T00:31:29.948Z,20.20
2019-06-07T00:34:01.198Z,21.07
2019-06-07T00:36:31.634Z,20.87
2019-06-07T00:39:02.099Z,20.97
2019-06-07T00:41:34.216Z,21.13
2019-06-07T00:44:05.053Z,19.90
2019-06-07T00:46:35.488Z,20.30
2019-06-07T00:49:05.880Z,21.73
2019-06-07T00:51:50.147Z,19.80
2019-06-07T00:54:08.477Z,21.10
2019-06-07T00:56:38.940Z,22.17
2019-06-07T00:59:11.738Z,20.37
2019-06-07T01:01:41.666Z,20.90
2019-06-07T01:04:13.138Z,19.87
2019-06-07T01:06:44.257Z,21.10
2019-06-07T01:09:15.330Z,22.13
2019-06-07T01:11:46.052Z,23.30
2019-06-07T01:14:21.451Z,23.37
2019-06-07T01:16:57.042Z,22.47
2019-06-07T01:19:22.261Z,22.60
2019-06-07T01:21:52.825Z,22.00
2019-06-07T01:24:25.765Z,20.77
2019-06-07T01:26:55.389Z,21.93
2019-06-07T01:29:30.010Z,23.70
2019-06-07T01:31:58.306Z,22.73
2019-06-07T01:34:29.715Z,22.77
2019-06-07T01:37:00.195Z,21.70
2019-06-07T01:39:31.812Z,21.30
2019-06-07T01:42:02.748Z,22.17
2019-06-07T01:44:33.260Z,23.73
2019-06-07T01:47:03.653Z,22.90
2019-06-07T01:49:34.089Z,22.47
2019-06-07T01:52:04.558Z,22.97
2019-06-07T01:54:56.619Z,23.23
2019-06-07T01:57:07.121Z,24.63
2019-06-07T01:59:37.554Z,23.70
2019-06-07T02:02:07.990Z,24.80
2019-06-07T02:04:39.566Z,23.80
2019-06-07T02:07:09.993Z,24.07
2019-06-07T02:09:40.528Z,25.77
2019-06-07T02:12:25.617Z,25.13
2019-06-07T02:14:43.048Z,24.93
2019-06-07T02:17:13.486Z,23.27
2019-06-07T02:19:43.953Z,24.00
2019-06-07T02:22:14.389Z,24.47
2019-06-07T02:24:44.821Z,24.30
2019-06-07T02:27:15.212Z,24.47
2019-06-07T02:29:45.650Z,25.07
2019-06-07T02:32:16.086Z,24.93
2019-06-07T02:34:46.520Z,23.60
2019-06-07T02:37:16.929Z,24.47
2019-06-07T02:39:47.362Z,23.07
2019-06-07T02:42:17.797Z,25.03
2019-06-07T02:44:48.399Z,23.00
2019-06-07T02:47:18.830Z,23.30
2019-06-07T02:49:49.233Z,24.77
2019-06-07T02:52:19.656Z,23.77
2019-06-07T02:54:50.058Z,22.13
2019-06-07T02:57:20.499Z,22.73
2019-06-07T03:00:06.211Z,24.33
2019-06-07T03:02:25.533Z,23.27
2019-06-07T03:04:56.442Z,23.57
2019-06-07T03:07:30.041Z,23.30
2019-06-07T03:10:01.260Z,22.50
2019-06-07T03:12:34.003Z,23.30
2019-06-07T03:15:06.276Z,23.17
2019-06-07T03:17:40.872Z,24.13
2019-06-07T03:20:14.185Z,24.50
2019-06-07T03:22:44.983Z,26.60
2019-06-07T03:25:15.422Z,24.47
2019-06-07T03:27:49.779Z,25.53
2019-06-07T03:32:52.056Z,26.90
2019-06-07T03:35:22.812Z,27.13
2019-06-07T03:37:53.261Z,26.10
2019-06-07T03:40:23.662Z,25.77
2019-06-07T03:42:54.127Z,24.60
2019-06-07T03:45:24.585Z,22.93
2019-06-07T03:47:55.018Z,23.70
2019-06-07T03:50:25.527Z,26.77
2019-06-07T03:52:55.929Z,24.23
2019-06-07T03:55:27.798Z,24.40
2019-06-07T03:58:30.790Z,26.47
2019-06-07T04:00:34.075Z,24.70
2019-06-07T04:03:04.124Z,25.97
2019-06-07T04:05:40.268Z,23.73
2019-06-07T04:08:06.829Z,24.13
2019-06-07T04:10:55.636Z,24.77
2019-06-07T04:13:09.416Z,24.53
2019-06-07T04:15:41.449Z,25.13
2019-06-07T04:18:12.110Z,22.73
2019-06-07T04:20:43.512Z,25.33
2019-06-07T04:23:27.737Z,25.33
2019-06-07T04:25:46.082Z,26.27
2019-06-07T04:28:16.495Z,24.70
2019-06-07T04:30:47.971Z,25.87
2019-06-07T04:33:18.411Z,23.53
2019-06-07T04:35:48.807Z,24.00
2019-06-07T04:38:19.234Z,23.67
2019-06-07T04:40:51.107Z,23.53
2019-06-07T04:43:21.541Z,23.80
2019-06-07T04:45:51.940Z,24.93
2019-06-07T04:48:22.498Z,26.63
2019-06-07T04:50:55.565Z,25.87
2019-06-07T04:53:26.013Z,23.63
2019-06-07T04:55:57.042Z,25.60
2019-06-07T04:58:30.059Z,23.97
2019-06-07T05:01:03.374Z,25.10
2019-06-07T05:03:37.052Z,22.97
2019-06-07T05:06:04.249Z,24.90
2019-06-07T05:08:38.086Z,24.73
2019-06-07T05:11:07.748Z,23.00
2019-06-07T05:13:40.490Z,24.40
2019-06-07T05:16:10.523Z,25.50
2019-06-07T05:18:43.146Z,23.90
2019-06-07T05:21:13.064Z,24.60
2019-06-07T05:24:05.725Z,25.37
2019-06-07T05:26:15.607Z,23.53
2019-06-07T05:28:46.045Z,25.70
2019-06-07T05:31:16.441Z,25.97
2019-06-07T05:33:46.884Z,25.97
2019-06-07T05:36:17.273Z,25.20
2019-06-07T05:38:47.721Z,24.40
2019-06-07T05:41:18.121Z,25.97
2019-06-07T05:44:09.180Z,25.67
2019-06-07T05:46:20.696Z,28.33
2019-06-07T05:48:52.104Z,27.70
2019-06-07T05:51:22.564Z,23.10
2019-06-07T05:53:53.030Z,23.07
2019-06-07T05:56:23.482Z,24.37
2019-06-07T05:58:53.956Z,22.80
2019-06-07T06:01:42.842Z,25.57
2019-06-07T06:03:56.476Z,27.73
2019-06-07T06:06:26.938Z,24.80
2019-06-07T06:09:12.907Z,23.07
2019-06-07T06:11:45.879Z,23.20
2019-06-07T06:14:07.969Z,21.00
2019-06-07T06:16:34.686Z,24.03
2019-06-07T06:19:05.279Z,23.87
2019-06-07T06:21:36.215Z,22.17
2019-06-07T06:24:06.693Z,18.62
2019-06-07T06:26:45.438Z,19.15
2019-06-07T06:29:09.370Z,18.80
2019-06-07T06:31:42.050Z,19.95
2019-06-07T06:34:11.940Z,20.55
2019-06-07T06:36:44.629Z,17.52
2019-06-07T06:39:14.538Z,17.80
2019-06-07T06:41:57.146Z,18.20
2019-06-07T06:44:17.176Z,17.87
2019-06-07T06:46:57.080Z,17.48
2019-06-07T06:49:19.811Z,17.90
2019-06-07T06:51:53.425Z,17.95
2019-06-07T06:54:39.526Z,18.87
2019-06-07T06:57:17.178Z,17.55
2019-06-07T06:59:38.527Z,17.07
2019-06-07T07:01:59.070Z,16.05
2019-06-07T07:04:30.099Z,16.65
2019-06-07T07:07:00.622Z,17.15
2019-06-07T07:09:31.014Z,16.05
2019-06-07T07:12:12.295Z,17.98
2019-06-07T07:14:33.586Z,19.75
2019-06-07T07:17:04.088Z,17.87
2019-06-07T07:19:34.514Z,18.12
2019-06-07T07:22:05.001Z,18.55
2019-06-07T07:24:35.440Z,18.17
2019-06-07T07:27:06.008Z,19.90
2019-06-07T07:29:36.452Z,18.07
2019-06-07T07:32:06.853Z,18.05
2019-06-07T07:34:37.729Z,20.15
2019-06-07T07:37:08.239Z,19.00
2019-06-07T07:39:38.675Z,17.92
2019-06-07T07:42:20.613Z,18.32
2019-06-07T07:44:41.214Z,19.98
2019-06-07T07:47:11.650Z,22.37
2019-06-07T07:49:42.090Z,20.43
2019-06-07T07:52:12.528Z,19.87
2019-06-07T07:54:44.228Z,20.35
2019-06-07T07:57:14.745Z,22.52
2019-06-07T08:00:01.508Z,20.20
2019-06-07T08:02:17.285Z,20.55
2019-06-07T08:07:20.793Z,21.15
2019-06-07T08:09:57.733Z,21.93
2019-06-07T08:12:25.003Z,21.07
2019-06-07T08:14:58.637Z,21.37
2019-06-07T08:17:27.560Z,20.75
2019-06-07T08:20:02.574Z,18.37
2019-06-07T08:22:30.974Z,20.23
2019-06-07T08:25:04.103Z,23.42
2019-06-07T08:27:34.186Z,23.95
2019-06-07T08:30:47.074Z,22.25
2019-06-07T08:32:46.165Z,22.35
2019-06-07T08:36:01.922Z,22.98
2019-06-07T08:38:29.814Z,22.75
2019-06-07T08:40:23.801Z,21.37
2019-06-07T08:43:15.227Z,21.52
2019-06-07T08:45:29.329Z,21.37
2019-06-07T08:48:09.150Z,20.43
2019-06-07T08:50:32.090Z,19.52
2019-06-07T08:53:11.454Z,20.72
2019-06-07T08:55:34.803Z,18.23
2019-06-07T08:58:08.781Z,18.20
2019-06-07T09:00:47.442Z,18.37
2019-06-07T09:03:10.545Z,16.55
2019-06-07T09:05:40.987Z,17.40
2019-06-07T09:08:29.081Z,16.40
2019-06-07T09:10:43.597Z,19.20
2019-06-07T09:13:14.007Z,16.67
2019-06-07T09:15:44.436Z,16.17
2019-06-07T09:18:42.030Z,15.58
2019-06-07T09:20:49.491Z,16.17
2019-06-07T09:23:20.066Z,14.03
2019-06-07T09:26:00.959Z,17.25
2019-06-07T09:28:24.294Z,15.90
2019-06-07T09:30:57.123Z,16.40
2019-06-07T09:33:26.840Z,17.82
2019-06-07T09:35:58.640Z,14.75
2019-06-07T09:38:29.871Z,14.60
2019-06-07T09:41:02.430Z,14.35
2019-06-07T09:46:11.829Z,13.95
2019-06-07T09:51:19.027Z,14.63
2019-06-07T09:53:41.218Z,13.30
2019-06-07T09:56:12.323Z,13.78
2019-06-07T09:58:52.540Z,12.40
2019-06-07T10:01:15.099Z,13.18
2019-06-07T10:03:45.498Z,12.90
2019-06-07T10:06:15.931Z,12.65
2019-06-07T10:10:04.777Z,12.18
2019-06-07T10:11:18.456Z,11.97
2019-06-07T10:13:48.894Z,12.45
2019-06-07T10:16:19.295Z,13.20
2019-06-07T10:18:49.739Z,13.72
2019-06-07T10:21:20.141Z,14.15
2019-06-07T10:23:50.613Z,13.98
2019-06-07T10:26:21.054Z,13.98
2019-06-07T10:28:53.514Z,14.47
2019-06-07T10:31:23.683Z,14.03
2019-06-07T10:33:54.101Z,15.45
2019-06-07T10:36:24.538Z,14.25
2019-06-07T10:38:54.937Z,14.55
2019-06-07T10:41:26.355Z,14.47
2019-06-07T10:43:57.085Z,14.00
2019-06-07T10:46:27.687Z,13.40
2019-06-07T10:48:58.176Z,14.98
2019-06-07T10:51:28.816Z,12.98
2019-06-07T10:53:59.262Z,13.98
2019-06-07T10:56:29.660Z,12.82
2019-06-07T10:59:00.104Z,14.33
2019-06-07T11:01:30.602Z,12.95
2019-06-07T11:04:01.000Z,12.33
2019-06-07T11:06:31.443Z,12.75
2019-06-07T11:09:01.842Z,13.08
2019-06-07T11:11:33.865Z,12.28
2019-06-07T11:14:06.421Z,12.00
2019-06-07T11:16:36.994Z,13.62
2019-06-07T11:19:08.071Z,12.58
2019-06-07T11:21:38.569Z,14.87
2019-06-07T11:24:10.136Z,12.00
2019-06-07T11:26:41.725Z,13.80
2019-06-07T11:29:12.768Z,14.53
2019-06-07T11:31:43.261Z,18.05
2019-06-07T11:34:14.675Z,16.42
2019-06-07T11:36:45.189Z,18.90
2019-06-07T11:39:15.657Z,20.37
2019-06-07T11:41:46.100Z,18.52
2019-06-07T11:44:17.236Z,20.48
2019-06-07T11:46:47.857Z,18.98
2019-06-07T11:49:20.314Z,19.85
2019-06-07T11:51:50.514Z,18.95
2019-06-07T11:54:20.913Z,20.17
2019-06-07T11:56:51.366Z,21.15
2019-06-07T11:59:22.828Z,20.43
2019-06-07T12:01:53.328Z,16.67
2019-06-07T12:04:34.555Z,15.03
2019-06-07T12:06:55.932Z,15.10
2019-06-07T12:09:28.145Z,13.90
2019-06-07T12:11:58.771Z,14.20
2019-06-07T12:14:29.210Z,14.10
2019-06-07T12:16:59.618Z,14.43
2019-06-07T12:19:30.131Z,13.33
2019-06-07T12:22:00.534Z,13.20
2019-06-07T12:24:30.973Z,11.97
2019-06-07T12:27:01.413Z,11.68
2019-06-07T12:29:33.947Z,11.22
2019-06-07T12:32:04.011Z,11.78
2019-06-07T12:34:34.410Z,13.25
2019-06-07T12:37:04.922Z,14.20
2019-06-07T12:39:35.496Z,10.88
2019-06-07T12:42:06.039Z,12.33
2019-06-07T12:44:36.787Z,12.13
2019-06-07T12:47:07.235Z,10.58
2019-06-07T12:49:37.670Z,10.65
2019-06-07T12:52:08.062Z,9.63
2019-06-07T12:54:38.500Z,9.18
2019-06-07T12:57:08.912Z,7.58
2019-06-07T12:59:39.413Z,7.83
2019-06-07T13:02:09.798Z,8.00
2019-06-07T13:04:40.228Z,7.30
2019-06-07T13:07:10.662Z,7.97
2019-06-07T13:09:42.064Z,6.25
2019-06-07T13:12:12.492Z,7.50
2019-06-07T13:14:42.928Z,7.22
2019-06-07T13:17:13.356Z,7.15
2019-06-07T13:19:43.755Z,7.87
2019-06-07T13:22:14.196Z,7.50
2019-06-07T13:24:44.662Z,7.62
2019-06-07T13:27:16.173Z,7.30
2019-06-07T13:29:47.069Z,7.50
2019-06-07T13:32:17.527Z,7.22
2019-06-07T13:34:47.973Z,8.18
2019-06-07T13:37:19.666Z,8.25
2019-06-07T13:39:50.222Z,7.70
2019-06-07T13:42:20.660Z,7.47
2019-06-07T13:44:51.126Z,7.75
2019-06-07T13:47:23.006Z,8.23
2019-06-07T13:49:55.169Z,9.00
2019-06-07T13:52:25.815Z,8.93
2019-06-07T13:54:56.198Z,9.63
2019-06-07T13:57:28.084Z,9.40
2019-06-07T13:59:58.576Z,10.05
2019-06-07T14:02:29.834Z,10.13
2019-06-07T14:05:01.407Z,9.00
2019-06-07T14:07:31.942Z,11.20
2019-06-07T14:10:02.533Z,10.08
2019-06-07T14:12:33.597Z,9.88
2019-06-07T14:15:05.772Z,10.78
2019-06-07T14:17:36.244Z,10.00
2019-06-07T14:20:09.302Z,11.03
2019-06-07T14:22:40.317Z,11.08
2019-06-07T14:25:11.252Z,10.30
2019-06-07T14:27:41.743Z,9.80
2019-06-07T14:30:12.689Z,10.15
2019-06-07T14:32:43.136Z,9.93
2019-06-07T14:35:13.763Z,9.70
2019-06-07T14:37:44.210Z,10.23
2019-06-07T14:40:16.518Z,10.48
2019-06-07T14:42:47.027Z,10.30
2019-06-07T14:45:17.985Z,11.22
2019-06-07T14:47:48.380Z,11.63
2019-06-07T14:50:19.338Z,12.10
2019-06-07T14:52:49.734Z,10.93
2019-06-07T14:55:20.243Z,10.78
2019-06-07T14:57:50.647Z,12.07
2019-06-07T15:00:24.431Z,11.05
2019-06-07T15:02:54.931Z,11.30
2019-06-07T15:05:31.329Z,10.68
2019-06-07T15:08:02.980Z,10.30
2019-06-07T15:10:33.743Z,9.88
2019-06-07T15:13:07.362Z,11.68
2019-06-07T15:15:38.903Z,11.90
2019-06-07T15:18:09.559Z,10.55
2019-06-07T15:20:40.028Z,10.93
2019-06-07T15:23:10.511Z,9.65
2019-06-07T15:25:40.997Z,9.33
2019-06-07T15:28:11.391Z,9.40
2019-06-07T15:30:41.868Z,9.88
2019-06-07T15:33:12.300Z,10.03
2019-06-07T15:35:42.732Z,9.30
2019-06-07T15:38:13.161Z,8.85
2019-06-07T15:40:43.551Z,8.20
2019-06-07T15:43:13.976Z,8.43
2019-06-07T15:45:44.839Z,8.50
2019-06-07T15:48:15.542Z,8.15
2019-06-07T15:50:45.981Z,7.90
2019-06-07T15:53:16.407Z,7.67
2019-06-07T15:55:46.836Z,7.87
2019-06-07T15:58:17.233Z,7.20
2019-06-07T16:00:49.996Z,7.08
2019-06-07T16:03:19.833Z,7.72
2019-06-07T16:05:50.284Z,7.72
2019-06-07T16:08:20.665Z,8.20
2019-06-07T16:10:51.091Z,8.50
2019-06-07T16:13:21.500Z,7.62
2019-06-07T16:15:51.931Z,8.30
2019-06-07T16:18:22.399Z,11.63
2019-06-07T16:20:52.864Z,10.90
2019-06-07T16:23:23.292Z,9.50
2019-06-07T16:25:54.662Z,10.73
2019-06-07T16:28:25.096Z,10.10
2019-06-07T16:30:55.542Z,11.07
2019-06-07T16:33:25.938Z,10.87
2019-06-07T16:35:56.540Z,10.93
2019-06-07T16:38:26.934Z,9.85
2019-06-07T16:40:57.442Z,10.35
2019-06-07T16:43:27.878Z,10.60
2019-06-07T16:45:58.352Z,9.60
2019-06-07T16:48:28.785Z,8.53
2019-06-07T16:50:59.231Z,8.67
2019-06-07T16:53:29.671Z,7.90
2019-06-07T16:56:00.081Z,7.97
2019-06-07T16:58:30.510Z,7.70
2019-06-07T17:01:00.912Z,8.17
2019-06-07T17:03:32.795Z,8.10
2019-06-07T17:06:03.354Z,7.87
2019-06-07T17:08:33.815Z,8.67
2019-06-07T17:11:04.519Z,8.53
2019-06-07T17:13:35.950Z,8.30
2019-06-07T17:16:06.447Z,8.80
2019-06-07T17:18:37.248Z,9.00
2019-06-07T17:21:07.852Z,8.90
2019-06-07T17:23:39.139Z,8.83
2019-06-07T17:26:09.659Z,8.70
2019-06-07T17:28:41.620Z,9.80
2019-06-07T17:31:14.055Z,9.90
2019-06-07T17:33:44.488Z,10.87
2019-06-07T17:36:15.022Z,10.93
2019-06-07T17:38:46.551Z,12.63
2019-06-07T17:41:18.443Z,12.00
2019-06-07T17:43:57.770Z,11.97
2019-06-07T17:46:22.077Z,11.27
2019-06-07T17:48:52.502Z,11.60
2019-06-07T17:51:23.005Z,12.40
2019-06-07T17:53:53.402Z,12.73
2019-06-07T17:56:23.842Z,12.57
2019-06-07T17:58:54.246Z,13.53
2019-06-07T18:01:24.678Z,13.13
2019-06-07T18:03:55.077Z,14.47
2019-06-07T18:06:25.809Z,14.37
2019-06-07T18:08:56.878Z,14.03
2019-06-07T18:11:27.277Z,14.73
2019-06-07T18:14:10.151Z,14.27
2019-06-07T18:16:30.102Z,14.83
2019-06-07T18:19:00.537Z,15.37
2019-06-07T18:21:30.977Z,15.27
2019-06-07T18:24:01.382Z,15.70
2019-06-07T18:26:31.838Z,15.90
2019-06-07T18:29:02.239Z,15.90
2019-06-07T18:31:32.685Z,16.27
2019-06-07T18:34:03.075Z,15.70
2019-06-07T18:36:33.511Z,17.50
2019-06-07T18:39:05.963Z,17.37
2019-06-07T18:41:36.428Z,17.20
2019-06-07T18:44:20.855Z,17.67
2019-06-07T18:46:39.028Z,17.37
2019-06-07T18:49:09.481Z,17.07
2019-06-07T18:51:39.915Z,18.53
2019-06-07T18:54:10.348Z,18.30
2019-06-07T18:56:40.792Z,17.80
2019-06-07T18:59:11.265Z,17.90
2019-06-07T19:01:41.708Z,17.57
2019-06-07T19:04:12.149Z,18.17
2019-06-07T19:06:42.657Z,20.73
2019-06-07T19:09:13.112Z,19.00
2019-06-07T19:11:43.508Z,19.43
2019-06-07T19:14:13.963Z,19.40
2019-06-07T19:16:44.360Z,19.73
2019-06-07T19:19:14.813Z,20.07
2019-06-07T19:21:48.133Z,18.57
2019-06-07T19:24:18.668Z,21.03
2019-06-07T19:26:50.404Z,20.87
2019-06-07T19:29:21.058Z,22.00
2019-06-07T19:31:52.891Z,23.47
2019-06-07T19:34:23.373Z,22.80
2019-06-07T19:36:53.812Z,22.23
2019-06-07T19:39:24.211Z,21.77
2019-06-07T19:41:55.722Z,22.80
2019-06-07T19:44:26.443Z,23.33
2019-06-07T19:46:56.880Z,25.90
2019-06-07T19:49:27.417Z,23.13
2019-06-07T19:51:58.994Z,25.47
2019-06-07T19:54:29.527Z,26.20
2019-06-07T19:56:59.945Z,27.37
2019-06-07T19:59:31.437Z,26.77
2019-06-07T20:02:02.176Z,28.33
2019-06-07T20:04:32.649Z,27.67
2019-06-07T20:07:03.933Z,28.80
2019-06-07T20:09:35.327Z,28.03
2019-06-07T20:12:06.015Z,28.10
2019-06-07T20:14:36.403Z,28.53
2019-06-07T20:17:07.001Z,25.27
2019-06-07T20:19:38.321Z,26.67
2019-06-07T20:22:09.543Z,28.90
2019-06-07T20:24:40.064Z,27.50
2019-06-07T20:27:10.470Z,28.60
2019-06-07T20:29:40.904Z,28.17
2019-06-07T20:32:11.344Z,28.63
2019-06-07T20:34:44.645Z,26.87
2019-06-07T20:37:13.878Z,26.23
2019-06-07T20:39:44.286Z,26.57
2019-06-07T20:42:14.720Z,21.20
2019-06-07T20:44:45.112Z,23.87
2019-06-07T20:47:15.561Z,22.37
2019-06-07T20:49:46.075Z,23.70
2019-06-07T20:52:16.519Z,24.90
2019-06-07T20:54:47.079Z,23.73
2019-06-07T20:57:17.772Z,21.70
2019-06-07T20:59:48.208Z,19.50
2019-06-07T21:02:19.608Z,19.70
2019-06-07T21:04:50.089Z,18.73
2019-06-07T21:07:20.532Z,21.73
2019-06-07T21:09:50.938Z,22.67
2019-06-07T21:12:21.517Z,26.20
2019-06-07T21:14:51.991Z,25.47
2019-06-07T21:17:22.443Z,22.70
2019-06-07T21:19:53.076Z,24.50
2019-06-07T21:22:23.544Z,23.07
2019-06-07T21:24:55.729Z,22.63
2019-06-07T21:27:26.192Z,26.77
2019-06-07T21:29:56.684Z,30.67
2019-06-07T21:32:27.138Z,32.07
2019-06-07T21:34:57.573Z,29.53
2019-06-07T21:37:28.034Z,30.37
2019-06-07T21:40:01.828Z,33.80
2019-06-07T21:42:32.669Z,31.93
2019-06-07T21:45:05.686Z,30.73
2019-06-07T21:47:35.298Z,27.97
2019-06-07T21:50:08.983Z,30.60
2019-06-07T21:52:39.565Z,30.97
2019-06-07T21:55:11.607Z,31.13
2019-06-07T21:57:42.080Z,29.70
2019-06-07T22:00:18.878Z,28.83
2019-06-07T22:02:51.008Z,29.00
2019-06-07T22:05:21.501Z,30.00
2019-06-07T22:07:52.929Z,28.60
2019-06-07T22:10:23.430Z,29.47
2019-06-07T22:12:53.879Z,30.30
2019-06-07T22:15:34.046Z,29.90
2019-06-07T22:17:56.548Z,35.87
2019-06-07T22:20:27.262Z,40.77
2019-06-07T22:22:57.652Z,36.83
2019-06-07T22:25:28.111Z,38.07
2019-06-07T22:27:58.513Z,42.43
2019-06-07T22:30:28.953Z,47.80
2019-06-07T22:32:59.357Z,45.23
2019-06-07T22:35:29.804Z,43.63
2019-06-07T22:38:00.238Z,40.50
2019-06-07T22:40:30.678Z,42.67
2019-06-07T22:43:01.268Z,39.10
2019-06-07T22:45:31.798Z,34.63
2019-06-07T22:48:02.263Z,34.87
2019-06-07T22:50:32.656Z,32.97
2019-06-07T22:53:03.165Z,31.53
2019-06-07T22:55:33.665Z,32.17
2019-06-07T22:58:04.057Z,33.83
2019-06-07T23:00:36.199Z,38.00
2019-06-07T23:03:08.402Z,37.70
2019-06-07T23:05:39.012Z,33.67
2019-06-07T23:08:10.860Z,32.27
2019-06-07T23:10:41.491Z,38.40
2019-06-07T23:13:11.928Z,34.77
2019-06-07T23:15:42.402Z,30.37
2019-06-07T23:18:13.453Z,28.63
2019-06-07T23:20:43.914Z,27.33
2019-06-07T23:23:14.908Z,32.93
2019-06-07T23:25:45.455Z,25.43
2019-06-07T23:28:16.599Z,25.50
2019-06-07T23:30:47.164Z,26.43
2019-06-07T23:33:18.821Z,27.37
2019-06-07T23:35:49.280Z,26.40
2019-06-07T23:38:19.714Z,27.47
2019-06-07T23:40:50.151Z,24.97
2019-06-07T23:43:21.571Z,33.40
2019-06-07T23:45:53.036Z,30.57
2019-06-07T23:48:23.476Z,32.70
2019-06-07T23:50:53.875Z,32.20
2019-06-07T23:53:24.314Z,31.03
2019-06-07T23:55:54.704Z,30.37
2019-06-07T23:58:25.142Z,32.23
